Time;durP1;ratioP1;P1;durP2;ratioP2;P2;SDS_P1;SDS_P2;PMS_P1;PMS_P2;Temp;Humidity;BMP_temperature;BMP_pressure;BME280_temperature;BME280_humidity;BME280_pressure;Samples;Min_cycle;Max_cycle;Signal;HPM_P1;HPM_P2
2024/04/16 00:01:01;;;;;;;5.32;1.08;;;5.40;99.90;;;;;;5335915;26;20474;-79
2024/04/16 00:03:27;;;;;;;2.42;0.50;;;5.40;99.90;;;;;;5337809;26;20009;-79
2024/04/16 00:05:53;;;;;;;1.15;0.47;;;5.40;99.90;;;;;;5337998;26;20371;-80
2024/04/16 00:08:19;;;;;;;2.30;0.43;;;5.40;99.90;;;;;;5333992;26;20000;-79
2024/04/16 00:10:45;;;;;;;2.40;0.50;;;5.40;99.90;;;;;;5332457;26;20452;-80
2024/04/16 00:13:11;;;;;;;2.08;0.35;;;5.40;99.90;;;;;;5330570;26;20328;-80
2024/04/16 00:15:37;;;;;;;1.25;0.40;;;5.40;99.90;;;;;;5334394;26;20428;-80
2024/04/16 00:18:03;;;;;;;1.70;0.50;;;5.40;99.90;;;;;;5336721;26;20005;-81
2024/04/16 00:20:29;;;;;;;1.50;0.40;;;5.40;99.90;;;;;;5335502;26;20119;-80
2024/04/16 00:22:55;;;;;;;1.45;0.47;;;5.40;99.90;;;;;;5335479;26;20009;-80
2024/04/16 00:25:21;;;;;;;2.47;0.57;;;5.30;99.90;;;;;;5332148;26;20008;-80
2024/04/16 00:27:50;;;;;;;1.92;0.40;;;5.30;99.90;;;;;;5337522;26;20463;-80
2024/04/16 00:30:17;;;;;;;0.80;0.32;;;5.30;99.90;;;;;;5334894;26;20005;-80
2024/04/16 00:32:45;;;;;;;1.35;0.40;;;5.30;99.90;;;;;;5336841;26;20016;-81
2024/04/16 00:35:11;;;;;;;3.38;0.45;;;5.30;99.90;;;;;;5337139;26;21758;-80
2024/04/16 00:37:37;;;;;;;2.28;0.60;;;5.30;99.90;;;;;;5326760;26;20711;-80
2024/04/16 00:40:03;;;;;;;1.35;0.50;;;5.30;99.90;;;;;;5327505;26;20009;-81
2024/04/16 00:42:29;;;;;;;1.50;0.75;;;5.30;99.90;;;;;;5338299;26;20001;-81
2024/04/16 00:44:55;;;;;;;2.05;0.60;;;5.30;99.90;;;;;;5331555;26;20001;-81
2024/04/16 00:47:21;;;;;;;2.65;0.70;;;5.30;99.90;;;;;;5335352;26;20009;-81
2024/04/16 00:49:47;;;;;;;1.10;0.35;;;5.30;99.90;;;;;;5329625;26;20020;-81
2024/04/16 00:52:14;;;;;;;3.40;0.68;;;5.40;99.90;;;;;;5334367;26;20094;-81
2024/04/16 00:54:42;;;;;;;2.83;0.70;;;5.40;99.90;;;;;;5329255;26;19998;-80
2024/04/16 00:57:08;;;;;;;1.98;0.55;;;5.40;99.90;;;;;;5332380;26;20019;-80
2024/04/16 00:59:36;;;;;;;2.63;0.63;;;5.50;99.90;;;;;;5331581;26;20359;-81
2024/04/16 01:02:03;;;;;;;3.90;0.80;;;5.40;99.90;;;;;;5332610;26;20475;-81
2024/04/16 01:04:29;;;;;;;2.90;0.52;;;5.40;99.90;;;;;;5334515;26;20023;-80
2024/04/16 01:06:55;;;;;;;5.90;0.93;;;5.40;99.90;;;;;;5332644;26;20011;-81
2024/04/16 01:09:24;;;;;;;3.47;0.63;;;5.40;99.90;;;;;;5335557;26;20017;-80
2024/04/16 01:11:50;;;;;;;2.63;0.80;;;5.40;99.90;;;;;;5329695;26;19997;-80
2024/04/16 01:14:16;;;;;;;3.60;1.00;;;5.40;99.90;;;;;;5335623;26;20096;-81
2024/04/16 01:16:42;;;;;;;4.15;0.90;;;5.50;99.90;;;;;;5334001;26;20004;-81
2024/04/16 01:19:10;;;;;;;3.67;0.88;;;5.50;99.90;;;;;;5336060;26;20456;-80
2024/04/16 01:21:36;;;;;;;2.28;0.90;;;5.50;99.90;;;;;;5329276;26;20103;-81
2024/04/16 01:24:02;;;;;;;2.13;0.80;;;5.60;99.90;;;;;;5335409;26;20060;-80
2024/04/16 01:26:28;;;;;;;3.42;1.15;;;5.50;99.90;;;;;;5334919;26;20009;-80
2024/04/16 01:28:54;;;;;;;2.42;0.70;;;5.40;99.90;;;;;;5330879;26;20480;-80
2024/04/16 01:31:22;;;;;;;2.92;0.63;;;5.40;99.90;;;;;;5332611;26;20082;-79
2024/04/16 01:33:48;;;;;;;1.98;0.57;;;5.40;99.90;;;;;;5332846;26;20028;-80
2024/04/16 01:36:14;;;;;;;3.72;0.60;;;5.30;99.90;;;;;;5328309;26;20626;-80
2024/04/16 01:38:40;;;;;;;3.17;0.70;;;5.40;99.90;;;;;;5335100;26;20367;-81
2024/04/16 01:41:06;;;;;;;1.20;0.32;;;5.30;99.90;;;;;;5334652;26;20005;-80
2024/04/16 01:43:32;;;;;;;3.00;0.50;;;5.20;99.90;;;;;;5332305;26;20016;-80
2024/04/16 01:45:57;;;;;;;2.45;0.32;;;5.30;99.90;;;;;;5334043;26;20009;-80
2024/04/16 01:48:23;;;;;;;2.47;0.63;;;5.20;99.90;;;;;;5346292;26;20009;-80
2024/04/16 01:50:50;;;;;;;3.15;0.90;;;5.20;99.90;;;;;;5385237;26;20032;-80
2024/04/16 01:53:17;;;;;;;1.00;0.40;;;5.20;99.90;;;;;;5335977;26;20044;-80
2024/04/16 01:55:43;;;;;;;1.95;0.65;;;5.20;99.90;;;;;;5338773;26;20044;-80
2024/04/16 01:58:09;;;;;;;1.40;0.50;;;5.20;99.90;;;;;;5335720;26;19997;-80
2024/04/16 02:00:35;;;;;;;3.25;0.82;;;5.20;99.90;;;;;;5337093;26;20005;-80
2024/04/16 02:03:02;;;;;;;4.18;1.00;;;5.10;99.90;;;;;;5337697;26;20009;-79
2024/04/16 02:05:29;;;;;;;1.95;0.60;;;5.10;99.90;;;;;;5395956;26;20686;-80
2024/04/16 02:08:15;;;;;;;3.80;0.73;;;5.10;99.90;;;;;;5381694;26;20005;-80
2024/04/16 02:10:54;;;;;;;4.68;0.65;;;5.10;99.90;;;;;;5338442;26;20041;-79
2024/04/16 02:13:20;;;;;;;3.78;0.80;;;5.10;99.90;;;;;;5340529;26;20352;-80
2024/04/16 02:15:46;;;;;;;3.20;0.60;;;5.20;99.90;;;;;;5398760;26;20016;-80
2024/04/16 02:18:12;;;;;;;3.83;0.90;;;5.20;99.90;;;;;;5339198;26;20073;-80
2024/04/16 02:20:38;;;;;;;2.05;0.70;;;5.20;99.90;;;;;;5339916;26;20023;-79
2024/04/16 02:23:04;;;;;;;3.65;0.70;;;5.20;99.90;;;;;;5340485;26;20506;-80
2024/04/16 02:25:29;;;;;;;3.30;0.77;;;5.20;99.90;;;;;;5347654;26;20033;-80
2024/04/16 02:27:55;;;;;;;2.90;0.68;;;5.20;99.90;;;;;;5334916;26;20345;-80
2024/04/16 02:30:21;;;;;;;5.07;1.02;;;5.00;99.90;;;;;;5331990;26;20017;-80
2024/04/16 02:32:48;;;;;;;5.13;0.98;;;5.10;99.90;;;;;;5336656;26;20005;-79
2024/04/16 02:35:14;;;;;;;5.30;0.80;;;5.10;99.90;;;;;;5340991;26;20195;-80
2024/04/16 02:37:40;;;;;;;7.10;1.27;;;5.10;99.90;;;;;;5340397;26;20091;-79
2024/04/16 02:40:06;;;;;;;6.28;1.02;;;5.10;99.90;;;;;;5339410;26;20005;-80
2024/04/16 02:42:32;;;;;;;3.65;0.88;;;5.10;99.90;;;;;;5337604;26;20008;-79
2024/04/16 02:45:20;;;;;;;3.78;0.98;;;5.10;99.90;;;;;;5337165;26;20064;-78
2024/04/16 02:47:46;;;;;;;3.70;0.80;;;5.20;99.90;;;;;;5341654;26;20005;-79
2024/04/16 02:50:11;;;;;;;3.70;1.15;;;5.20;99.90;;;;;;5324879;26;20075;-79
2024/04/16 02:52:37;;;;;;;5.13;0.85;;;5.20;99.90;;;;;;5324695;26;20227;-79
2024/04/16 02:55:06;;;;;;;6.05;1.10;;;5.30;99.90;;;;;;5337180;26;20015;-80
2024/04/16 02:57:34;;;;;;;9.00;1.30;;;5.30;99.90;;;;;;5341391;26;20001;-79
2024/04/16 03:00:03;;;;;;;4.63;1.02;;;5.30;99.90;;;;;;5330167;26;20038;-80
2024/04/16 03:02:29;;;;;;;6.68;1.40;;;5.40;99.90;;;;;;5329810;26;20021;-79
2024/04/16 03:04:54;;;;;;;8.70;1.25;;;5.50;99.90;;;;;;5337050;26;20534;-80
2024/04/16 03:07:20;;;;;;;8.93;1.27;;;5.50;99.90;;;;;;5338811;26;20009;-80
2024/04/16 03:09:46;;;;;;;7.30;2.10;;;5.50;99.90;;;;;;5334459;26;20456;-80
2024/04/16 03:12:13;;;;;;;10.48;1.73;;;5.60;99.90;;;;;;5337970;26;20031;-80
2024/04/16 03:14:39;;;;;;;7.70;1.75;;;5.70;99.90;;;;;;5338177;26;20001;-80
2024/04/16 03:17:05;;;;;;;6.53;1.30;;;5.60;99.90;;;;;;5337180;26;20481;-80
2024/04/16 03:19:31;;;;;;;5.97;1.00;;;5.70;99.90;;;;;;5334514;26;20009;-80
2024/04/16 03:21:57;;;;;;;5.20;1.20;;;5.60;99.90;;;;;;5340512;26;20008;-80
2024/04/16 03:24:22;;;;;;;7.03;0.98;;;5.60;99.90;;;;;;5322707;26;21411;-79
2024/04/16 03:26:48;;;;;;;6.82;1.15;;;5.60;99.90;;;;;;5339762;26;20008;-80
2024/04/16 03:29:15;;;;;;;6.80;1.60;;;5.60;99.90;;;;;;5395416;26;20041;-80
2024/04/16 03:31:41;;;;;;;6.22;1.27;;;5.60;99.90;;;;;;5338801;26;20009;-80
2024/04/16 03:34:08;;;;;;;7.10;1.38;;;5.60;99.90;;;;;;5336815;26;20012;-80
2024/04/16 03:36:33;;;;;;;7.50;1.52;;;5.70;99.90;;;;;;5339721;26;20087;-80
2024/04/16 03:38:59;;;;;;;7.13;1.40;;;5.70;99.90;;;;;;5333562;26;20344;-80
2024/04/16 03:41:25;;;;;;;9.98;1.52;;;5.60;99.90;;;;;;5398792;26;20008;-80
2024/04/16 03:44:11;;;;;;;5.32;1.65;;;5.70;99.90;;;;;;5304831;26;20006;-80
2024/04/16 03:46:37;;;;;;;6.65;1.33;;;5.70;99.90;;;;;;5398035;26;20459;-80
2024/04/16 03:49:03;;;;;;;6.22;1.38;;;5.70;99.90;;;;;;5328500;26;20009;-80
2024/04/16 03:51:29;;;;;;;9.65;1.75;;;5.70;99.90;;;;;;5330677;26;20033;-80
2024/04/16 03:53:55;;;;;;;6.22;1.35;;;5.70;99.90;;;;;;5397428;26;20015;-80
2024/04/16 03:56:21;;;;;;;6.78;1.88;;;5.80;99.90;;;;;;5340956;26;20079;-80
2024/04/16 04:01:35;;;;;;;5.45;1.20;;;5.80;99.90;;;;;;5333189;26;20001;-80
2024/04/16 04:04:00;;;;;;;5.07;1.20;;;5.80;99.90;;;;;;5391789;26;20362;-80
2024/04/16 04:06:28;;;;;;;7.57;1.80;;;5.80;99.90;;;;;;5335751;26;20458;-80
2024/04/16 04:08:54;;;;;;;4.30;1.00;;;5.80;99.90;;;;;;5341303;26;20021;-80
2024/04/16 04:11:20;;;;;;;3.88;1.65;;;5.90;99.90;;;;;;5326755;26;20009;-80
2024/04/16 04:13:46;;;;;;;5.32;1.67;;;5.80;99.90;;;;;;5316630;26;20013;-80
2024/04/16 04:16:14;;;;;;;6.70;1.77;;;5.80;99.90;;;;;;5388661;26;19997;-80
2024/04/16 04:18:40;;;;;;;4.43;1.20;;;5.80;99.90;;;;;;5339356;26;20009;-80
2024/04/16 04:21:06;;;;;;;6.95;2.00;;;5.80;99.90;;;;;;5338465;26;20009;-80
2024/04/16 04:23:31;;;;;;;6.85;2.10;;;5.90;99.90;;;;;;5340625;26;20023;-81
2024/04/16 04:25:58;;;;;;;6.13;1.90;;;5.70;99.90;;;;;;5335354;26;20001;-81
2024/04/16 04:28:24;;;;;;;8.52;2.50;;;5.70;99.90;;;;;;5337574;26;20001;-80
2024/04/16 04:30:51;;;;;;;6.40;2.38;;;5.80;99.90;;;;;;5333479;26;20024;-80
2024/04/16 04:33:20;;;;;;;6.60;2.70;;;5.70;99.90;;;;;;5320501;26;20012;-80
2024/04/16 04:35:46;;;;;;;7.75;3.08;;;5.80;99.90;;;;;;5335894;26;20486;-80
2024/04/16 04:38:12;;;;;;;9.95;3.10;;;5.70;99.90;;;;;;5336705;26;20005;-80
2024/04/16 04:40:38;;;;;;;6.28;2.83;;;5.70;99.90;;;;;;5394174;26;19997;-80
2024/04/16 04:43:04;;;;;;;7.50;3.53;;;5.70;99.90;;;;;;5397504;26;20009;-79
2024/04/16 04:45:30;;;;;;;8.10;3.97;;;5.70;99.90;;;;;;5393851;26;20669;-79
2024/04/16 04:47:55;;;;;;;8.82;4.05;;;5.70;99.90;;;;;;5336019;26;20012;-80
2024/04/16 04:50:21;;;;;;;4.88;3.45;;;5.70;99.90;;;;;;5328205;26;19997;-79
2024/04/16 04:52:50;;;;;;;7.75;3.42;;;5.60;99.90;;;;;;5331844;26;20019;-79
2024/04/16 04:55:16;;;;;;;5.35;3.13;;;5.70;99.90;;;;;;5335625;26;20029;-81
2024/04/16 04:57:43;;;;;;;6.75;3.55;;;5.70;99.90;;;;;;5340430;26;20095;-80
2024/04/16 05:00:09;;;;;;;6.50;3.30;;;5.60;99.90;;;;;;5382192;26;20714;-79
2024/04/16 05:02:35;;;;;;;6.90;3.08;;;5.60;99.90;;;;;;5334537;26;20009;-80
2024/04/16 05:05:01;;;;;;;7.45;2.90;;;5.60;99.90;;;;;;5339736;26;20618;-80
2024/04/16 05:07:27;;;;;;;8.82;3.65;;;5.60;99.90;;;;;;5393932;26;20012;-79
2024/04/16 05:09:53;;;;;;;8.10;3.50;;;5.60;99.90;;;;;;5329807;26;20009;-79
2024/04/16 05:12:19;;;;;;;8.07;3.05;;;5.60;99.90;;;;;;5333167;26;20017;-80
2024/04/16 05:14:45;;;;;;;5.70;3.22;;;5.50;99.90;;;;;;5335022;26;20448;-79
2024/04/16 05:17:11;;;;;;;6.30;2.80;;;5.50;99.90;;;;;;5333677;26;20005;-80
2024/04/16 05:19:36;;;;;;;4.88;2.92;;;5.50;99.90;;;;;;5333893;26;20025;-79
2024/04/16 05:22:02;;;;;;;4.10;2.72;;;5.50;99.90;;;;;;5334017;26;20009;-79
2024/04/16 05:24:28;;;;;;;5.55;2.60;;;5.50;99.90;;;;;;5335533;26;20111;-79
2024/04/16 05:26:54;;;;;;;7.78;3.05;;;5.50;99.90;;;;;;5334400;26;20009;-80
2024/04/16 05:29:20;;;;;;;6.93;2.70;;;5.50;99.90;;;;;;5391819;26;20000;-79
2024/04/16 05:31:46;;;;;;;5.93;2.75;;;5.50;99.90;;;;;;5335590;26;20021;-80
2024/04/16 05:34:11;;;;;;;5.22;2.22;;;5.50;99.90;;;;;;5333174;26;20460;-79
2024/04/16 05:36:38;;;;;;;3.75;1.70;;;5.50;99.90;;;;;;5333901;26;20022;-80
2024/04/16 05:39:04;;;;;;;4.43;2.08;;;5.50;99.90;;;;;;5331746;26;20419;-82
2024/04/16 05:41:30;;;;;;;6.05;2.70;;;5.50;99.90;;;;;;5335785;26;20009;-81
2024/04/16 05:43:55;;;;;;;4.63;2.15;;;5.40;99.90;;;;;;5335284;26;20086;-79
2024/04/16 05:46:21;;;;;;;3.63;2.20;;;5.40;99.90;;;;;;5333118;26;20013;-80
2024/04/16 05:48:50;;;;;;;5.35;2.55;;;5.40;99.90;;;;;;5331284;26;20002;-80
2024/04/16 05:51:16;;;;;;;5.13;2.10;;;5.40;99.90;;;;;;5335283;26;20013;-81
2024/04/16 05:53:42;;;;;;;5.25;2.17;;;5.40;99.90;;;;;;5331800;26;20012;-81
2024/04/16 05:56:08;;;;;;;5.95;1.83;;;5.40;99.90;;;;;;5333884;26;20511;-81
2024/04/16 05:58:34;;;;;;;5.15;1.58;;;5.40;99.90;;;;;;5335884;26;20459;-81
2024/04/16 06:01:04;;;;;;;2.30;1.27;;;5.40;99.90;;;;;;5330921;26;20012;-81
2024/04/16 06:03:31;;;;;;;2.63;1.20;;;5.40;99.90;;;;;;5336850;26;20005;-82
2024/04/16 06:05:57;;;;;;;4.68;1.50;;;5.40;99.90;;;;;;5313979;26;19998;-82
2024/04/16 06:08:22;;;;;;;4.07;1.30;;;5.30;99.90;;;;;;5329495;26;20009;-82
2024/04/16 06:10:48;;;;;;;2.88;1.13;;;5.30;99.90;;;;;;5331369;26;19997;-83
2024/04/16 06:13:14;;;;;;;2.50;1.10;;;5.30;99.90;;;;;;5333653;26;20024;-83
2024/04/16 06:15:40;;;;;;;2.83;1.33;;;5.30;99.90;;;;;;5333120;26;20013;-84
2024/04/16 06:18:09;;;;;;;2.70;1.05;;;5.30;99.90;;;;;;5387226;26;20343;-84
2024/04/16 06:20:36;;;;;;;4.53;1.80;;;5.30;99.90;;;;;;5331257;26;20017;-84
2024/04/16 06:23:01;;;;;;;4.00;1.45;;;5.30;99.90;;;;;;5328588;26;20005;-83
2024/04/16 06:25:27;;;;;;;5.05;1.60;;;5.30;99.90;;;;;;5328576;26;19997;-83
2024/04/16 06:27:55;;;;;;;4.25;1.90;;;5.30;99.90;;;;;;5331762;26;20012;-84
2024/04/16 06:30:21;;;;;;;3.08;1.60;;;5.40;99.90;;;;;;5336296;26;20337;-83
2024/04/16 06:32:48;;;;;;;5.85;1.70;;;5.40;99.90;;;;;;5332334;26;20741;-85
2024/04/16 06:35:14;;;;;;;3.88;1.67;;;5.40;99.90;;;;;;5363605;26;20001;-84
2024/04/16 06:37:41;;;;;;;2.13;1.50;;;5.40;99.90;;;;;;5334132;26;20001;-84
2024/04/16 06:40:08;;;;;;;2.53;1.80;;;5.40;99.90;;;;;;5340691;26;20024;-82
2024/04/16 06:42:36;;;;;;;3.30;1.63;;;5.40;99.90;;;;;;5337013;26;20001;-84
2024/04/16 06:45:05;;;;;;;3.25;1.50;;;5.50;99.90;;;;;;5339857;26;20079;-84
2024/04/16 06:47:33;;;;;;;3.08;1.70;;;5.50;99.90;;;;;;5338153;26;20022;-83
2024/04/16 06:50:02;;;;;;;4.57;1.90;;;5.50;99.90;;;;;;5340976;26;20009;-84
2024/04/16 06:52:29;;;;;;;4.97;1.70;;;5.60;99.90;;;;;;5336626;26;20001;-84
2024/04/16 06:54:55;;;;;;;2.60;1.73;;;5.60;99.90;;;;;;5340081;26;20027;-81
2024/04/16 06:57:21;;;;;;;4.13;1.88;;;5.60;99.90;;;;;;5339716;26;20001;-82
2024/04/16 06:59:50;;;;;;;6.75;1.90;;;5.70;99.90;;;;;;5339441;26;20019;-82
2024/04/16 07:02:15;;;;;;;3.90;2.13;;;5.70;99.90;;;;;;5338414;26;20019;-83
2024/04/16 07:04:41;;;;;;;4.47;2.08;;;5.80;99.90;;;;;;5338147;26;20024;-82
2024/04/16 07:07:07;;;;;;;5.05;1.65;;;5.80;99.90;;;;;;5337700;26;20027;-83
2024/04/16 07:09:33;;;;;;;4.28;1.65;;;5.90;99.90;;;;;;5334293;26;20348;-82
2024/04/16 07:11:59;;;;;;;2.03;1.33;;;5.80;99.90;;;;;;5337192;26;20491;-83
2024/04/16 07:14:25;;;;;;;5.60;1.65;;;5.80;99.90;;;;;;5338061;26;20009;-82
2024/04/16 07:16:51;;;;;;;3.45;1.38;;;5.80;99.90;;;;;;5340158;26;20020;-82
2024/04/16 07:19:19;;;;;;;2.63;1.70;;;5.80;99.90;;;;;;5333495;26;20008;-81
2024/04/16 07:21:45;;;;;;;2.85;1.55;;;5.90;99.90;;;;;;5336426;26;20020;-82
2024/04/16 07:24:11;;;;;;;5.30;2.03;;;5.90;99.90;;;;;;5334980;26;20418;-83
2024/04/16 07:26:37;;;;;;;3.78;1.80;;;6.00;99.90;;;;;;5335174;26;20064;-82
2024/04/16 07:29:03;;;;;;;5.13;1.67;;;6.20;99.90;;;;;;5392651;26;20008;-82
2024/04/16 07:31:28;;;;;;;4.32;2.00;;;6.30;99.90;;;;;;5338464;26;20020;-81
2024/04/16 07:33:55;;;;;;;3.30;2.20;;;6.30;99.90;;;;;;5335140;26;20019;-82
2024/04/16 07:36:21;;;;;;;3.20;2.10;;;6.50;99.90;;;;;;5336359;26;20001;-81
2024/04/16 07:38:48;;;;;;;2.25;1.85;;;6.60;99.90;;;;;;5336466;26;20025;-81
2024/04/16 07:41:14;;;;;;;2.83;1.92;;;6.70;99.90;;;;;;5336530;26;20000;-82
2024/04/16 07:43:39;;;;;;;3.40;2.00;;;6.60;99.90;;;;;;5336054;26;19997;-81
2024/04/16 07:46:05;;;;;;;3.90;2.20;;;6.60;99.90;;;;;;5337307;26;20880;-81
2024/04/16 07:48:31;;;;;;;3.17;1.90;;;6.50;99.90;;;;;;5335248;26;20340;-81
2024/04/16 07:50:57;;;;;;;5.40;2.20;;;6.50;99.90;;;;;;5334286;26;20005;-81
2024/04/16 07:53:23;;;;;;;3.35;2.08;;;6.40;99.90;;;;;;5337400;26;20076;-82
2024/04/16 07:55:49;;;;;;;3.97;1.90;;;6.50;99.90;;;;;;5333155;26;20002;-81
2024/04/16 07:58:14;;;;;;;2.47;1.73;;;6.50;99.90;;;;;;5336560;26;20020;-82
2024/04/16 08:00:40;;;;;;;3.88;2.10;;;6.50;99.90;;;;;;5337744;26;20009;-81
2024/04/16 08:03:09;;;;;;;5.00;2.25;;;6.50;99.90;;;;;;5334283;26;20028;-81
2024/04/16 08:05:38;;;;;;;4.90;2.05;;;6.50;99.90;;;;;;5338655;26;20040;-82
2024/04/16 08:08:05;;;;;;;5.32;2.28;;;6.50;99.90;;;;;;5333087;26;20021;-81
2024/04/16 08:10:34;;;;;;;2.67;1.80;;;6.50;99.90;;;;;;5336164;26;20009;-82
2024/04/16 08:13:00;;;;;;;3.20;1.88;;;6.60;99.90;;;;;;5330787;26;20267;-83
2024/04/16 08:15:26;;;;;;;4.35;1.83;;;6.80;99.90;;;;;;5339150;26;20009;-82
2024/04/16 08:17:52;;;;;;;3.63;1.67;;;7.00;99.90;;;;;;5305742;26;20104;-82
2024/04/16 08:20:18;;;;;;;2.45;1.67;;;7.10;99.90;;;;;;5337321;26;20040;-82
2024/04/16 08:22:44;;;;;;;1.73;1.30;;;7.20;99.90;;;;;;5334911;26;20432;-83
2024/04/16 08:25:10;;;;;;;5.40;1.40;;;7.30;99.90;;;;;;5335210;26;20005;-82
2024/04/16 08:27:38;;;;;;;2.75;1.40;;;7.30;99.90;;;;;;5336779;26;20358;-82
2024/04/16 08:30:05;;;;;;;3.28;1.45;;;7.40;99.90;;;;;;5336794;26;20009;-82
2024/04/16 08:32:31;;;;;;;4.80;1.55;;;7.40;99.90;;;;;;5332999;26;20436;-82
2024/04/16 08:34:56;;;;;;;2.45;1.13;;;7.30;99.90;;;;;;5365178;26;20494;-85
2024/04/16 08:37:22;;;;;;;2.28;1.20;;;7.20;99.90;;;;;;5333827;26;19997;-82
2024/04/16 08:39:49;;;;;;;2.00;0.95;;;7.20;99.90;;;;;;5336504;26;20549;-83
2024/04/16 08:42:17;;;;;;;2.72;0.70;;;7.20;99.90;;;;;;5331920;26;20009;-82
2024/04/16 08:44:45;;;;;;;2.00;0.63;;;7.20;99.90;;;;;;5336976;26;20023;-83
2024/04/16 08:47:12;;;;;;;1.65;0.63;;;7.10;99.90;;;;;;5334887;26;20090;-82
2024/04/16 08:49:41;;;;;;;0.88;0.60;;;7.10;99.90;;;;;;5334995;26;20019;-81
2024/04/16 08:52:09;;;;;;;1.60;0.77;;;7.00;99.90;;;;;;5336147;26;19997;-83
2024/04/16 08:54:37;;;;;;;1.05;0.50;;;7.10;99.90;;;;;;5332828;26;20041;-82
2024/04/16 08:57:04;;;;;;;0.98;0.60;;;7.10;99.90;;;;;;5336545;26;20460;-83
2024/04/16 08:59:32;;;;;;;1.40;0.52;;;7.10;99.90;;;;;;5332764;26;20009;-84
2024/04/16 09:02:01;;;;;;;3.10;0.52;;;7.10;99.90;;;;;;5336933;26;20012;-83
2024/04/16 09:04:28;;;;;;;0.90;0.50;;;7.20;99.90;;;;;;5329878;26;20005;-83
2024/04/16 09:06:55;;;;;;;1.35;0.57;;;7.30;99.90;;;;;;5335681;26;20019;-83
2024/04/16 09:09:21;;;;;;;0.80;0.43;;;7.30;99.90;;;;;;5333925;26;20005;-83
2024/04/16 09:11:47;;;;;;;1.95;0.50;;;7.40;99.90;;;;;;5334050;26;20020;-82
2024/04/16 09:14:16;;;;;;;0.77;0.60;;;7.50;99.90;;;;;;5333532;26;20325;-83
2024/04/16 09:16:42;;;;;;;1.95;0.50;;;7.60;99.90;;;;;;5333980;26;20036;-82
2024/04/16 09:19:10;;;;;;;0.60;0.40;;;7.60;99.90;;;;;;5333615;26;20013;-82
2024/04/16 09:21:36;;;;;;;1.17;0.50;;;7.50;99.90;;;;;;5331567;26;20064;-82
2024/04/16 09:24:05;;;;;;;0.75;0.50;;;7.50;99.90;;;;;;5333022;26;20000;-83
2024/04/16 09:26:34;;;;;;;2.92;0.68;;;7.50;99.90;;;;;;5337267;26;20016;-82
2024/04/16 09:29:00;;;;;;;1.00;0.80;;;7.50;99.90;;;;;;5392234;26;20008;-82
2024/04/16 09:31:26;;;;;;;1.08;0.60;;;7.60;99.90;;;;;;5332430;26;20483;-83
2024/04/16 09:34:11;;;;;;;1.45;0.80;;;7.60;99.90;;;;;;5334378;26;20009;-82
2024/04/16 09:36:48;;;;;;;2.08;0.88;;;7.70;99.90;;;;;;5336962;26;20496;-83
2024/04/16 09:39:22;;;;;;;1.42;0.60;;;7.90;99.90;;;;;;5333483;26;20075;-83
2024/04/16 09:41:50;;;;;;;2.67;1.00;;;8.00;99.90;;;;;;5337026;26;20005;-83
2024/04/16 09:44:17;;;;;;;0.73;0.60;;;8.10;99.90;;;;;;5330817;26;20506;-83
2024/04/16 09:46:50;;;;;;;1.15;0.65;;;8.30;99.90;;;;;;5333953;26;20001;-84
2024/04/16 09:49:18;;;;;;;2.22;0.90;;;8.40;99.90;;;;;;5336819;26;20078;-83
2024/04/16 09:51:47;;;;;;;1.35;0.73;;;8.60;99.90;;;;;;5337779;26;20019;-83
2024/04/16 09:54:15;;;;;;;1.52;0.80;;;8.80;99.90;;;;;;5361574;26;20005;-83
2024/04/16 09:56:45;;;;;;;1.08;0.68;;;9.10;99.90;;;;;;5335424;26;20463;-83
2024/04/16 09:59:13;;;;;;;1.38;0.77;;;9.20;99.90;;;;;;5331430;26;20023;-84
2024/04/16 10:01:41;;;;;;;0.95;0.68;;;9.30;99.90;;;;;;5336212;26;20478;-84
2024/04/16 10:04:08;;;;;;;1.30;0.75;;;9.20;99.90;;;;;;5334878;26;20020;-84
2024/04/16 10:06:34;;;;;;;1.25;0.60;;;9.30;99.90;;;;;;5336122;26;20016;-83
2024/04/16 10:09:01;;;;;;;2.15;0.80;;;9.30;99.90;;;;;;5334896;26;20009;-83
2024/04/16 10:11:29;;;;;;;1.58;0.80;;;9.40;99.90;;;;;;5336554;26;20060;-84
2024/04/16 10:13:55;;;;;;;1.23;0.80;;;9.50;99.90;;;;;;5336544;26;20013;-83
2024/04/16 10:16:21;;;;;;;1.17;0.70;;;9.50;99.90;;;;;;5335395;26;20024;-83
2024/04/16 10:18:56;;;;;;;1.38;0.73;;;9.50;99.90;;;;;;5339130;26;20467;-84
2024/04/16 10:21:27;;;;;;;0.90;0.50;;;9.50;99.90;;;;;;5337273;26;20009;-84
2024/04/16 10:24:03;;;;;;;;;;;9.50;99.90;;;;;;5339629;26;20005;-83
2024/04/16 10:26:33;;;;;;;4.93;1.33;;;9.50;99.90;;;;;;5333063;26;20749;-83
2024/04/16 10:28:59;;;;;;;2.08;0.93;;;9.50;99.90;;;;;;5334068;26;20017;-85
2024/04/16 10:31:39;;;;;;;1.98;0.80;;;9.50;99.90;;;;;;5339679;26;20009;-84
2024/04/16 10:34:05;;;;;;;1.15;0.60;;;9.50;99.90;;;;;;5333744;26;20016;-83
2024/04/16 10:36:33;;;;;;;1.48;0.55;;;9.50;99.90;;;;;;5338249;26;20008;-84
2024/04/16 10:39:08;;;;;;;1.30;0.77;;;9.60;99.90;;;;;;5363482;26;20029;-85
2024/04/16 10:41:34;;;;;;;1.33;0.70;;;9.80;99.90;;;;;;5336706;26;20024;-83
2024/04/16 10:44:03;;;;;;;2.10;0.55;;;9.90;99.90;;;;;;5333388;26;20016;-84
2024/04/16 10:46:29;;;;;;;0.85;0.50;;;10.10;99.90;;;;;;5336298;26;20017;-84
2024/04/16 10:49:02;;;;;;;1.23;0.52;;;10.20;99.90;;;;;;5334934;26;20001;-82
2024/04/16 10:51:28;;;;;;;1.45;0.90;;;10.30;99.90;;;;;;5336812;26;20009;-82
2024/04/16 10:54:07;;;;;;;1.67;1.13;;;10.30;99.90;;;;;;5333098;26;20020;-83
2024/04/16 10:56:36;;;;;;;1.25;0.63;;;10.20;99.90;;;;;;5334127;26;20010;-84
2024/04/16 10:59:06;;;;;;;1.23;0.60;;;10.20;99.90;;;;;;5340425;26;20083;-84
2024/04/16 11:01:33;;;;;;;0.90;0.60;;;10.20;99.90;;;;;;5337144;26;20012;-83
2024/04/16 11:04:26;;;;;;;1.40;0.90;;;10.40;99.90;;;;;;5336018;26;20032;-83
2024/04/16 11:06:52;;;;;;;1.08;0.68;;;10.40;99.90;;;;;;5340236;26;20464;-83
2024/04/16 11:09:18;;;;;;;1.42;0.80;;;10.40;99.90;;;;;;5336017;26;20005;-83
2024/04/16 11:11:44;;;;;;;1.10;0.60;;;10.40;99.90;;;;;;5337558;26;20332;-84
2024/04/16 11:14:10;;;;;;;1.20;0.52;;;10.50;99.90;;;;;;5339107;26;20001;-83
2024/04/16 11:16:36;;;;;;;1.15;0.55;;;10.70;99.90;;;;;;5335708;26;20086;-83
2024/04/16 11:19:03;;;;;;;1.48;0.50;;;10.80;99.90;;;;;;5338361;26;20017;-84
2024/04/16 11:21:31;;;;;;;1.50;0.70;;;10.80;99.90;;;;;;5361930;26;20009;-83
2024/04/16 11:23:58;;;;;;;1.65;0.77;;;10.90;99.90;;;;;;5335317;26;20070;-84
2024/04/16 11:26:24;;;;;;;1.05;0.60;;;11.00;99.90;;;;;;5336960;26;20785;-84
2024/04/16 11:28:51;;;;;;;0.75;0.40;;;11.00;99.90;;;;;;5333952;26;20016;-83
2024/04/16 11:31:18;;;;;;;0.45;0.30;;;10.80;99.90;;;;;;5332855;26;20487;-84
2024/04/16 11:33:52;;;;;;;2.47;0.70;;;10.80;99.90;;;;;;5338957;26;20001;-83
2024/04/16 11:36:18;;;;;;;0.73;0.50;;;10.70;99.90;;;;;;5364778;26;20025;-85
2024/04/16 11:38:44;;;;;;;1.17;0.40;;;10.70;99.90;;;;;;5333836;26;20071;-83
2024/04/16 11:41:10;;;;;;;1.10;0.40;;;10.70;99.90;;;;;;5335189;26;20452;-84
2024/04/16 11:43:36;;;;;;;1.38;0.77;;;10.70;99.90;;;;;;5336449;26;20009;-85
2024/04/16 11:46:04;;;;;;;1.00;0.50;;;10.70;99.90;;;;;;5336205;26;20004;-84
2024/04/16 11:48:34;;;;;;;2.47;0.63;;;10.90;99.90;;;;;;5338725;26;20011;-85
2024/04/16 11:51:00;;;;;;;2.35;0.47;;;11.10;99.90;;;;;;5327758;26;20080;-84
2024/04/16 11:53:26;;;;;;;0.77;0.40;;;11.40;99.90;;;;;;5393800;26;20019;-84
2024/04/16 11:55:52;;;;;;;1.73;0.40;;;11.70;99.90;;;;;;5337703;26;20472;-84
2024/04/16 11:58:18;;;;;;;1.35;0.60;;;11.90;99.90;;;;;;5362937;26;20015;-84
2024/04/16 12:00:44;;;;;;;2.38;0.70;;;11.80;99.90;;;;;;5333878;26;20020;-84
2024/04/16 12:03:10;;;;;;;1.25;0.57;;;11.60;99.90;;;;;;5333881;26;20016;-85
2024/04/16 12:05:36;;;;;;;1.10;0.70;;;11.40;99.90;;;;;;5335438;26;20086;-84
2024/04/16 12:08:02;;;;;;;1.30;0.57;;;11.40;99.90;;;;;;5334957;26;20573;-84
2024/04/16 12:10:29;;;;;;;1.08;0.65;;;11.20;99.90;;;;;;5338135;26;20009;-83
2024/04/16 12:12:55;;;;;;;3.35;0.80;;;11.10;99.90;;;;;;5334822;26;20008;-83
2024/04/16 12:15:22;;;;;;;2.58;1.33;;;11.00;99.90;;;;;;5336891;26;20013;-84
2024/04/16 12:17:48;;;;;;;1.75;0.52;;;10.90;99.90;;;;;;5332385;26;20016;-84
2024/04/16 12:20:14;;;;;;;4.53;1.10;;;10.80;99.90;;;;;;5338417;26;20468;-84
2024/04/16 12:22:40;;;;;;;2.65;1.05;;;10.80;99.90;;;;;;5331834;26;20009;-84
2024/04/16 12:25:06;;;;;;;4.15;1.50;;;10.70;99.90;;;;;;5340990;26;20001;-84
2024/04/16 12:27:32;;;;;;;1.05;0.40;;;10.70;99.90;;;;;;5333435;26;20068;-84
2024/04/16 12:29:58;;;;;;;0.65;0.30;;;10.70;99.90;;;;;;5337882;26;20021;-84
2024/04/16 12:32:24;;;;;;;0.30;0.20;;;10.80;99.90;;;;;;5334736;26;20872;-84
2024/04/16 12:34:50;;;;;;;1.70;0.60;;;11.10;99.90;;;;;;5337763;26;19997;-85
2024/04/16 12:37:18;;;;;;;1.25;0.40;;;11.20;99.90;;;;;;5333697;26;20019;-84
2024/04/16 12:39:44;;;;;;;2.10;0.30;;;11.40;99.90;;;;;;5335318;26;20016;-85
2024/04/16 12:42:10;;;;;;;1.02;0.30;;;11.40;99.90;;;;;;5335590;26;20009;-85
2024/04/16 12:44:36;;;;;;;0.93;0.30;;;11.40;99.90;;;;;;5335115;26;20001;-84
2024/04/16 12:47:03;;;;;;;0.63;0.30;;;11.30;99.90;;;;;;5336904;26;20079;-85
2024/04/16 12:49:29;;;;;;;0.93;0.30;;;11.30;99.90;;;;;;5332562;26;20013;-85
2024/04/16 12:51:58;;;;;;;1.75;0.25;;;11.20;99.90;;;;;;5336706;26;20360;-86
2024/04/16 12:54:24;;;;;;;3.00;0.30;;;11.00;99.90;;;;;;5363412;26;20499;-84
2024/04/16 12:56:49;;;;;;;1.05;0.43;;;10.90;99.90;;;;;;5337360;26;20012;-85